Time;durP1;ratioP1;P1;durP2;ratioP2;P2;SDS_P1;SDS_P2;PMS_P1;PMS_P2;Temp;Humidity;BMP_temperature;BMP_pressure;BME280_temperature;BME280_humidity;BME280_pressure;Samples;Min_cycle;Max_cycle;Signal;HPM_P1;HPM_P2
2022/05/27 00:00:08;;;;;;;4.67;1.60;;;;;;;16.62;57.04;100677.36;1423684;91;21551;-85
2022/05/27 00:02:34;;;;;;;4.30;1.37;;;;;;;16.58;57.29;100681.42;1424091;91;22330;-85
2022/05/27 00:05:01;;;;;;;2.37;1.57;;;;;;;16.53;57.18;100674.45;1424751;91;21384;-86
2022/05/27 00:07:27;;;;;;;4.73;1.43;;;;;;;16.51;57.35;100672.96;1423634;92;21480;-85
2022/05/27 00:09:53;;;;;;;3.80;1.23;;;;;;;16.44;57.58;100671.02;1422273;92;21442;-85
2022/05/27 00:12:20;;;;;;;4.53;1.30;;;;;;;16.41;57.68;100666.03;1397243;92;22360;-87
2022/05/27 00:14:46;;;;;;;6.20;1.30;;;;;;;16.37;57.76;100666.56;1425644;91;21444;-87
2022/05/27 00:17:12;;;;;;;3.57;1.30;;;;;;;16.32;57.80;100661.77;1427826;91;21488;-87
2022/05/27 00:19:39;;;;;;;1.37;1.17;;;;;;;16.28;57.98;100660.45;1402336;91;21510;-83
2022/05/27 00:22:05;;;;;;;4.50;1.40;;;;;;;16.23;58.24;100660.19;1406184;93;21459;-84
2022/05/27 00:24:31;;;;;;;2.77;1.23;;;;;;;16.19;58.22;100664.20;1407097;93;21399;-84
2022/05/27 00:26:57;;;;;;;3.10;1.47;;;;;;;16.14;58.56;100659.41;1410036;91;21472;-84
2022/05/27 00:29:23;;;;;;;8.30;1.50;;;;;;;16.11;58.56;100657.58;1419009;91;21473;-84
2022/05/27 00:31:49;;;;;;;2.77;1.57;;;;;;;16.08;58.65;100648.09;1426379;91;21436;-84
2022/05/27 00:34:15;;;;;;;5.43;1.67;;;;;;;16.04;59.06;100648.13;1424724;91;21422;-85
2022/05/27 00:36:41;;;;;;;4.40;1.80;;;;;;;16.02;59.49;100652.81;1423843;91;22369;-87
2022/05/27 00:39:07;;;;;;;4.40;1.60;;;;;;;16.03;59.85;100649.66;1426451;91;21414;-85
2022/05/27 00:41:33;;;;;;;6.27;1.50;;;;;;;16.03;60.02;100649.15;1408200;93;21423;-85
2022/05/27 00:44:00;;;;;;;6.63;1.80;;;;;;;16.01;59.93;100645.81;1400473;93;21490;-85
2022/05/27 00:46:33;;;;;;;5.67;2.00;;;;;;;16.01;59.75;100645.81;1424566;91;21450;-86
2022/05/27 00:49:13;;;;;;;4.50;1.70;;;;;;;16.00;59.68;100650.84;1425905;91;21546;-87
2022/05/27 00:51:50;;;;;;;2.30;1.60;;;;;;;15.98;59.64;100641.66;1416692;91;21495;-87
2022/05/27 00:54:23;;;;;;;1.60;1.50;;;;;;;15.93;59.94;100645.36;1422961;91;21489;-87
2022/05/27 00:56:55;;;;;;;6.03;1.43;;;;;;;15.89;60.47;100643.23;1420128;91;22542;-86
2022/05/27 00:59:32;;;;;;;5.33;1.63;;;;;;;15.86;60.10;100640.92;1421290;91;22375;-86
2022/05/27 01:01:59;;;;;;;7.20;1.50;;;;;;;15.82;60.01;100638.27;1424957;91;22593;-86
2022/05/27 01:04:28;;;;;;;10.33;1.80;;;;;;;15.78;60.32;100643.95;1424833;91;21598;-85
2022/05/27 01:06:55;;;;;;;4.30;1.70;;;;;;;15.75;60.72;100646.16;1424306;91;22545;-85
2022/05/27 01:09:22;;;;;;;3.77;1.50;;;;;;;15.72;60.73;100643.84;1399008;92;21586;-85
2022/05/27 01:12:18;;;;;;;2.90;1.67;;;;;;;15.70;60.65;100642.67;1372517;94;21370;-84
2022/05/27 01:14:56;;;;;;;2.50;1.53;;;;;;;15.70;61.34;100640.00;1387072;94;21545;-85
2022/05/27 01:17:59;;;;;;;7.70;1.80;;;;;;;15.72;61.40;100639.33;1419933;92;21449;-86
2022/05/27 01:20:34;;;;;;;5.50;1.70;;;;;;;15.74;61.65;100637.83;1423356;92;22077;-85
2022/05/27 01:23:35;;;;;;;5.37;1.60;;;;;;;15.75;61.30;100632.81;1423588;90;21523;-85
2022/05/27 01:26:23;;;;;;;5.67;1.80;;;;;;;15.75;61.18;100633.64;1429528;91;21405;-86
2022/05/27 01:29:08;;;;;;;7.20;2.03;;;;;;;15.74;61.13;100629.32;1434310;90;22354;-86
2022/05/27 01:31:39;;;;;;;3.77;1.50;;;;;;;15.75;61.05;100635.48;1441085;90;22677;-86
2022/05/27 01:34:35;;;;;;;6.57;1.50;;;;;;;15.75;61.12;100629.64;1427521;90;21427;-86
2022/05/27 01:37:15;;;;;;;4.43;1.47;;;;;;;15.76;61.07;100629.12;1437845;90;21443;-86
2022/05/27 01:39:50;;;;;;;11.73;2.27;;;;;;;15.75;61.11;100620.80;1446521;90;21464;-86
2022/05/27 01:42:33;;;;;;;1.73;1.50;;;;;;;15.73;61.09;100623.63;1435082;90;21435;-86
2022/05/27 01:45:17;;;;;;;4.53;1.43;;;;;;;15.71;61.29;100620.84;1425152;91;21585;-86
2022/05/27 01:48:03;;;;;;;3.83;1.53;;;;;;;15.69;61.12;100618.34;1428674;90;21620;-86
2022/05/27 01:50:44;;;;;;;5.10;1.90;;;;;;;15.65;61.33;100615.67;1439954;90;21449;-85
2022/05/27 01:53:25;;;;;;;3.37;1.50;;;;;;;15.62;61.52;100624.51;1437536;90;22352;-81
2022/05/27 01:56:00;;;;;;;6.70;1.27;;;;;;;15.58;62.12;100621.38;1368970;95;22411;-86
2022/05/27 01:58:38;;;;;;;5.57;1.73;;;;;;;15.51;62.90;100622.59;1365536;95;21503;-85
2022/05/27 02:01:09;;;;;;;6.77;1.43;;;;;;;15.46;63.35;100624.11;1368626;96;21525;-85
2022/05/27 02:03:47;;;;;;;3.77;1.53;;;;;;;15.32;63.00;100623.83;1368387;96;21451;-86
2022/05/27 02:06:30;;;;;;;3.67;1.87;;;;;;;15.24;62.92;100623.04;1370165;96;22530;-85
2022/05/27 02:09:07;;;;;;;9.80;1.87;;;;;;;15.09;63.59;100624.27;1369647;96;21577;-85
2022/05/27 02:11:35;;;;;;;2.67;1.57;;;;;;;14.89;64.43;100619.33;1364836;96;22500;-85
2022/05/27 02:14:24;;;;;;;4.53;2.00;;;;;;;14.77;63.84;100616.70;1363572;96;22492;-86
2022/05/27 02:17:01;;;;;;;3.43;1.60;;;;;;;14.69;64.16;100615.89;1372228;96;21578;-86
2022/05/27 02:19:35;;;;;;;5.90;1.87;;;;;;;14.57;65.48;100616.75;1371593;96;22398;-86
2022/05/27 02:22:16;;;;;;;6.67;1.93;;;;;;;14.43;65.56;100621.71;1370140;95;21509;-86
2022/05/27 02:24:54;;;;;;;8.20;1.50;;;;;;;14.29;66.42;100629.04;1369633;95;21570;-86
2022/05/27 02:27:28;;;;;;;5.07;1.37;;;;;;;14.19;66.54;100623.89;1356905;95;21695;-86
2022/05/27 02:29:59;;;;;;;3.23;1.63;;;;;;;14.13;66.70;100618.41;1371520;95;21564;-85
2022/05/27 02:32:37;;;;;;;2.93;1.53;;;;;;;14.06;67.31;100632.03;1364911;91;22812;-86
2022/05/27 02:35:08;;;;;;;4.43;1.60;;;;;;;13.97;67.33;100626.70;1433627;91;21354;-86
2022/05/27 02:37:47;;;;;;;6.90;1.63;;;;;;;13.86;68.44;100627.52;1428549;91;21589;-86
2022/05/27 02:40:24;;;;;;;3.67;1.60;;;;;;;13.74;68.27;100632.32;1435254;91;22388;-86
2022/05/27 02:43:14;;;;;;;3.90;2.30;;;;;;;13.64;68.53;100625.00;1393027;90;21485;-85
2022/05/27 02:45:51;;;;;;;3.67;1.67;;;;;;;13.51;69.30;100630.27;1437998;91;21522;-86
2022/05/27 02:48:43;;;;;;;3.57;1.43;;;;;;;13.45;69.45;100626.92;1437422;91;22646;-86
2022/05/27 02:51:29;;;;;;;4.83;2.07;;;;;;;13.37;70.50;100623.41;1432981;91;21412;-86
2022/05/27 02:54:09;;;;;;;1.93;1.30;;;;;;;13.35;70.29;100626.72;1435674;90;21539;-86
2022/05/27 02:56:59;;;;;;;4.47;2.25;;;;;;;13.35;70.38;100632.03;1433629;90;21516;-86
2022/05/27 02:59:26;;;;;;;4.07;1.80;;;;;;;13.33;70.93;100629.55;1434101;90;22507;-86
2022/05/27 03:01:52;;;;;;;2.33;1.73;;;;;;;13.36;69.80;100629.73;1437619;91;21427;-86
2022/05/27 03:04:21;;;;;;;4.40;1.87;;;;;;;13.38;70.06;100631.23;1434142;90;21398;-86
2022/05/27 03:06:56;;;;;;;2.10;1.90;;;;;;;13.40;70.36;100629.73;1435153;91;21487;-85
2022/05/27 03:09:49;;;;;;;6.10;1.90;;;;;;;13.40;70.11;100637.20;1434459;90;21679;-85
2022/05/27 03:12:24;;;;;;;3.63;1.70;;;;;;;13.44;70.16;100631.09;1433924;90;21458;-85
2022/05/27 03:15:17;;;;;;;6.33;2.00;;;;;;;13.52;70.37;100638.59;1438335;90;22346;-86
2022/05/27 03:17:52;;;;;;;7.43;1.90;;;;;;;13.59;70.89;100633.95;1442914;90;21494;-86
2022/05/27 03:20:35;;;;;;;6.30;1.70;;;;;;;13.66;71.88;100642.44;1437406;90;22359;-87
2022/05/27 03:23:29;;;;;;;9.63;2.10;;;;;;;13.71;70.97;100636.64;1431714;90;21708;-86
2022/05/27 03:26:07;;;;;;;6.77;1.97;;;;;;;13.82;72.67;100627.02;1437436;90;21494;-85
2022/05/27 03:28:42;;;;;;;5.83;2.37;;;;;;;13.83;70.63;100653.95;1433281;91;21597;-86
2022/05/27 03:31:33;;;;;;;5.23;2.60;;;;;;;13.92;70.07;100633.00;1441083;90;21478;-86
2022/05/27 03:34:17;;;;;;;4.27;2.40;;;;;;;14.03;69.67;100620.39;1432904;91;21464;-86
2022/05/27 03:37:03;;;;;;;6.80;2.40;;;;;;;14.04;70.76;100642.00;1434982;90;21539;-86
2022/05/27 03:39:44;;;;;;;12.90;2.30;;;;;;;14.14;70.59;100637.37;1434311;90;21419;-85
2022/05/27 03:42:10;;;;;;;;;;;;;;;14.23;71.17;100633.70;1438236;90;21518;-87
2022/05/27 03:44:37;;;;;;;10.17;3.53;;;;;;;14.31;70.64;100637.70;1438866;90;20958;-85
2022/05/27 03:47:05;;;;;;;6.67;1.67;;;;;;;14.32;71.38;100656.66;1439614;90;22464;-86
2022/05/27 03:49:31;;;;;;;3.27;1.80;;;;;;;14.41;70.12;100629.06;1439785;90;21458;-85
2022/05/27 03:52:08;;;;;;;5.60;2.17;;;;;;;14.47;70.84;100638.17;1440348;90;21442;-86
2022/05/27 03:54:34;;;;;;;3.50;1.97;;;;;;;14.47;70.00;100630.69;1440256;90;21325;-86
2022/05/27 03:57:01;;;;;;;4.23;2.33;;;;;;;14.53;70.26;100628.72;1440966;90;22374;-86
2022/05/27 03:59:28;;;;;;;21.47;2.50;;;;;;;14.55;69.96;100637.37;1434937;90;21434;-86
2022/05/27 04:01:56;;;;;;;11.23;2.47;;;;;;;14.62;69.95;100633.88;1442487;90;21323;-85
2022/05/27 04:04:27;;;;;;;8.93;2.40;;;;;;;14.69;70.61;100643.86;1445625;90;21369;-85
2022/05/27 04:06:53;;;;;;;6.75;2.15;;;;;;;14.79;70.10;100637.36;1440872;90;21437;-85
2022/05/27 04:09:22;;;;;;;8.83;2.33;;;;;;;14.91;70.14;100637.00;1427557;90;22428;-84
2022/05/27 04:11:50;;;;;;;16.73;3.07;;;;;;;15.01;69.93;100629.11;1436039;90;21436;-84
2022/05/27 04:14:17;;;;;;;12.17;2.70;;;;;;;15.12;69.45;100625.25;1442719;90;22234;-84
2022/05/27 04:16:43;;;;;;;13.17;2.50;;;;;;;15.21;69.32;100635.38;1441132;90;21509;-84
2022/05/27 04:19:09;;;;;;;11.30;2.73;;;;;;;15.33;68.94;100632.66;1439327;90;21443;-85
2022/05/27 04:21:41;;;;;;;8.93;2.23;;;;;;;15.44;68.88;100640.28;1438872;90;21443;-84
2022/05/27 04:24:08;;;;;;;11.37;2.43;;;;;;;15.51;68.14;100647.09;1434610;90;21562;-84
2022/05/27 04:26:35;;;;;;;15.10;3.70;;;;;;;15.58;67.58;100635.53;1425722;91;21393;-84
2022/05/27 04:29:02;;;;;;;8.47;2.40;;;;;;;15.69;67.77;100638.86;1426850;91;22515;-85
2022/05/27 04:31:28;;;;;;;4.73;2.20;;;;;;;15.77;67.28;100643.64;1423256;91;21658;-87
2022/05/27 04:33:55;;;;;;;8.07;2.17;;;;;;;15.90;67.04;100640.89;1409586;92;22404;-88
2022/05/27 04:36:21;;;;;;;11.07;2.20;;;;;;;16.01;66.63;100629.80;1420596;91;21400;-86
2022/05/27 04:38:48;;;;;;;5.33;3.67;;;;;;;16.13;67.01;100635.55;1429698;92;21407;-87
2022/05/27 04:41:14;;;;;;;11.43;2.20;;;;;;;16.29;66.71;100634.61;1422418;91;21406;-86
2022/05/27 04:43:40;;;;;;;9.67;1.70;;;;;;;16.47;66.26;100629.75;1425672;91;21392;-86
2022/05/27 04:46:06;;;;;;;9.17;1.80;;;;;;;16.66;65.59;100638.59;1400458;91;21533;-85
2022/05/27 04:48:32;;;;;;;3.87;1.90;;;;;;;16.84;64.47;100628.09;1384986;94;21442;-86
2022/05/27 04:50:58;;;;;;;8.47;2.10;;;;;;;17.00;64.15;100625.22;1412564;91;21495;-88
2022/05/27 04:53:25;;;;;;;7.70;2.03;;;;;;;17.12;63.03;100617.59;1431603;91;21523;-85
2022/05/27 04:55:51;;;;;;;103.23;4.80;;;;;;;17.16;62.23;100626.88;1430106;91;21398;-86
2022/05/27 04:58:17;;;;;;;3.47;1.50;;;;;;;17.24;61.64;100624.63;1430375;92;21405;-87
2022/05/27 05:00:53;;;;;;;19.23;2.20;;;;;;;17.32;61.15;100620.48;1409168;92;22385;-87
2022/05/27 05:03:20;;;;;;;5.17;1.87;;;;;;;17.42;61.39;100622.38;1391155;94;21415;-87
2022/05/27 05:05:46;;;;;;;3.47;1.53;;;;;;;17.51;60.82;100625.77;1400175;92;21511;-88
2022/05/27 05:08:24;;;;;;;6.43;2.00;;;;;;;17.56;59.47;100618.83;1397355;92;21370;-87
2022/05/27 05:10:50;;;;;;;15.60;2.60;;;;;;;17.70;59.85;100626.50;1394529;94;21414;-87
2022/05/27 05:13:16;;;;;;;76.43;4.37;;;;;;;17.81;60.00;100618.02;1377511;95;22504;-87
2022/05/27 05:15:42;;;;;;;15.83;2.33;;;;;;;17.93;59.89;100620.19;1406034;93;21488;-87
2022/05/27 05:18:08;;;;;;;7.70;1.60;;;;;;;18.02;59.72;100621.20;1404129;92;21430;-88
2022/05/27 05:20:35;;;;;;;13.33;2.20;;;;;;;18.16;59.52;100624.01;1414470;92;22266;-87
2022/05/27 05:23:01;;;;;;;9.67;1.77;;;;;;;18.28;59.20;100630.50;1394579;92;21348;-90
2022/05/27 05:25:28;;;;;;;7.37;1.80;;;;;;;18.41;58.77;100624.41;1402024;93;21488;-86
2022/05/27 05:27:54;;;;;;;14.43;1.70;;;;;;;18.48;57.92;100618.08;1396041;92;21473;-87
2022/05/27 05:30:25;;;;;;;3.33;1.43;;;;;;;18.58;57.27;100617.73;1427429;91;21466;-87
2022/05/27 05:32:51;;;;;;;35.08;3.25;;;;;;;18.69;57.20;100610.48;1435123;91;22419;-87
2022/05/27 05:35:17;;;;;;;22.63;2.10;;;;;;;18.82;57.04;100612.47;1427250;91;21590;-87
2022/05/27 05:37:44;;;;;;;6.17;1.63;;;;;;;18.92;56.87;100609.42;1441862;91;21641;-87
2022/05/27 05:40:12;;;;;;;5.53;1.93;;;;;;;19.03;55.78;100608.05;1441644;90;21682;-87
2022/05/27 05:42:39;;;;;;;8.73;1.57;;;;;;;19.13;55.89;100609.83;1429964;91;21295;-86
2022/05/27 05:45:09;;;;;;;5.43;2.07;;;;;;;19.27;56.16;100605.36;1439261;91;21419;-87
2022/05/27 05:47:35;;;;;;;3.43;1.43;;;;;;;19.38;55.46;100605.61;1440169;90;21433;-86
2022/05/27 05:50:01;;;;;;;11.87;1.70;;;;;;;19.46;54.07;100603.80;1433259;91;21635;-86
2022/05/27 05:52:27;;;;;;;6.23;1.57;;;;;;;19.59;54.36;100602.47;1438269;91;22404;-86
2022/05/27 05:54:53;;;;;;;9.83;1.55;;;;;;;19.70;52.63;100603.25;1443697;90;21346;-83
2022/05/27 05:57:19;;;;;;;3.97;1.40;;;;;;;19.86;53.15;100606.61;1431732;91;21590;-84
2022/05/27 05:59:45;;;;;;;15.70;2.22;;;;;;;19.98;53.21;100598.25;1425601;91;21397;-81
2022/05/27 06:02:12;;;;;;;5.87;1.40;;;;;;;20.05;51.68;100597.72;1434074;90;21405;-81
2022/05/27 06:04:38;;;;;;;5.00;1.35;;;;;;;20.16;52.07;100598.45;1410908;91;21435;-81
2022/05/27 06:07:04;;;;;;;6.97;1.50;;;;;;;20.29;51.45;100597.13;1387375;94;22363;-82
2022/05/27 06:09:30;;;;;;;6.35;1.40;;;;;;;20.43;50.94;100590.41;1389079;94;21416;-81
2022/05/27 06:12:01;;;;;;;1.52;1.27;;;;;;;20.55;49.98;100595.48;1387419;92;22375;-81
2022/05/27 06:14:28;;;;;;;5.92;1.50;;;;;;;20.66;49.59;100592.68;1383033;92;21453;-81
2022/05/27 06:16:54;;;;;;;3.92;1.50;;;;;;;20.76;48.25;100594.92;1389887;94;21453;-81
2022/05/27 06:19:20;;;;;;;2.67;1.15;;;;;;;20.90;48.98;100589.82;1392432;92;21394;-81
2022/05/27 06:21:47;;;;;;;6.75;1.25;;;;;;;20.94;46.16;100592.38;1394686;92;21401;-81
2022/05/27 06:24:13;;;;;;;8.55;1.22;;;;;;;21.05;47.21;100590.91;1386655;92;21497;-81
2022/05/27 06:26:40;;;;;;;7.17;1.75;;;;;;;21.16;47.95;100591.06;1394463;92;21486;-81
2022/05/27 06:34:37;;;;;;;3.17;1.42;;;;;;;21.57;46.79;100583.13;1384769;94;23562;-81
2022/05/27 06:37:07;;;;;;;8.70;1.25;;;;;;;21.67;46.62;100584.55;1379453;94;21548;-81
2022/05/27 06:39:37;;;;;;;2.80;1.15;;;;;;;21.82;45.37;100589.09;1383817;94;21482;-81
2022/05/27 06:42:06;;;;;;;7.85;1.20;;;;;;;21.95;41.94;100575.55;1389165;92;21498;-81
2022/05/27 06:44:33;;;;;;;2.70;1.40;;;;;;;22.06;43.29;100577.50;1395130;92;21328;-80
2022/05/27 06:46:59;;;;;;;2.90;1.00;;;;;;;22.16;43.38;100575.68;1392029;92;22370;-81
2022/05/27 06:49:25;;;;;;;6.30;1.10;;;;;;;22.30;43.13;100573.20;1392673;92;21512;-80
2022/05/27 06:51:51;;;;;;;11.93;1.57;;;;;;;22.41;41.52;100567.61;1396471;92;21357;-80
2022/05/27 06:54:19;;;;;;;18.60;1.50;;;;;;;22.48;40.37;100560.80;1384425;94;22267;-81
2022/05/27 06:56:50;;;;;;;2.87;1.02;;;;;;;22.53;39.93;100558.27;1392298;92;22327;-80
2022/05/27 06:59:16;;;;;;;3.00;1.17;;;;;;;22.58;38.26;100551.66;1384660;92;21579;-81
2022/05/27 07:01:43;;;;;;;5.00;1.27;;;;;;;22.60;38.54;100555.48;1382652;92;22456;-81
2022/05/27 07:04:11;;;;;;;181.10;11.22;;;;;;;22.65;38.89;100547.03;1397866;94;22496;-81
2022/05/27 07:06:43;;;;;;;13.62;1.22;;;;;;;22.89;39.41;100526.40;1397646;93;21616;-81
2022/05/27 07:09:17;;;;;;;5.05;1.15;;;;;;;22.89;39.41;100526.40;1395821;93;21418;-81
2022/05/27 07:11:47;;;;;;;43.08;3.85;;;;;;;23.12;39.13;100526.26;1398961;93;21586;-81
2022/05/27 07:14:14;;;;;;;6.75;0.95;;;;;;;23.19;38.68;100533.75;1395862;93;21321;-81
2022/05/27 07:16:42;;;;;;;8.00;0.88;;;;;;;23.28;37.86;100522.11;1405443;93;21373;-80
2022/05/27 07:19:10;;;;;;;5.45;1.30;;;;;;;23.36;37.15;100523.11;1409844;93;21424;-80
2022/05/27 07:21:43;;;;;;;11.80;1.77;;;;;;;23.37;35.99;100520.73;1403236;93;22436;-81
2022/05/27 07:24:13;;;;;;;2.22;1.25;;;;;;;23.45;36.83;100527.66;1404111;93;22385;-81
2022/05/27 07:26:41;;;;;;;11.08;2.20;;;;;;;23.43;36.89;100526.03;1402553;93;21986;-81
2022/05/27 07:29:09;;;;;;;101.20;7.65;;;;;;;23.55;37.26;100521.19;1396937;93;21476;-81
2022/05/27 07:31:38;;;;;;;16.45;2.80;;;;;;;23.60;36.83;100522.14;1405736;93;21462;-80
2022/05/27 07:34:05;;;;;;;4.15;1.22;;;;;;;23.60;35.70;100517.27;1403590;93;21403;-81
2022/05/27 07:36:31;;;;;;;22.65;2.33;;;;;;;23.54;35.92;100515.50;1395082;93;21351;-81
2022/05/27 07:38:58;;;;;;;3.58;1.37;;;;;;;23.64;35.42;100525.20;1401629;93;21394;-80
2022/05/27 07:41:27;;;;;;;4.12;1.47;;;;;;;23.61;34.35;100516.20;1400399;93;21417;-81
2022/05/27 07:43:54;;;;;;;4.72;1.47;;;;;;;23.67;34.43;100514.46;1390994;93;21469;-80
2022/05/27 07:46:23;;;;;;;6.78;1.00;;;;;;;23.71;35.02;100517.86;1399191;93;21299;-79
2022/05/27 07:48:49;;;;;;;10.30;1.42;;;;;;;23.70;34.62;100526.16;1397312;93;21462;-80
2022/05/27 07:51:15;;;;;;;5.12;1.72;;;;;;;23.68;34.56;100526.91;1395125;93;22480;-80
2022/05/27 07:53:42;;;;;;;9.28;1.35;;;;;;;23.70;34.86;100516.70;1394858;93;21329;-81
2022/05/27 07:56:10;;;;;;;7.55;1.37;;;;;;;23.69;34.27;100507.77;1402050;93;21411;-81
2022/05/27 07:58:37;;;;;;;238.70;15.63;;;;;;;23.83;35.03;100513.83;1403759;93;21888;-80
2022/05/27 08:01:05;;;;;;;12.75;1.42;;;;;;;23.93;34.73;100517.29;1393798;93;23364;-81
2022/05/27 08:03:32;;;;;;;20.17;2.00;;;;;;;23.97;34.50;100503.62;1390589;93;22430;-80
2022/05/27 08:05:59;;;;;;;5.33;1.70;;;;;;;24.13;34.87;100517.77;1397392;93;21402;-81
2022/05/27 08:08:33;;;;;;;11.00;0.98;;;;;;;24.27;34.69;100509.72;1396669;93;22415;-81
2022/05/27 08:10:57;;;;;;;15.93;1.62;;;;;;;24.35;34.56;100510.43;1394779;93;21454;-80
2022/05/27 08:13:24;;;;;;;8.63;1.30;;;;;;;24.39;34.05;100496.72;1408081;93;23014;-80
2022/05/27 08:15:52;;;;;;;6.90;1.60;;;;;;;24.49;34.38;100505.09;1392830;93;21484;-81
2022/05/27 08:18:20;;;;;;;10.82;0.93;;;;;;;24.46;34.03;100483.93;1397945;93;21439;-80
2022/05/27 08:20:47;;;;;;;13.32;1.45;;;;;;;24.37;33.95;100496.97;1401739;93;21380;-80
2022/05/27 08:23:15;;;;;;;8.08;1.30;;;;;;;24.37;33.88;100497.47;1398397;93;21418;-81
2022/05/27 08:25:41;;;;;;;6.45;1.32;;;;;;;24.38;34.20;100492.38;1400290;92;21515;-80
2022/05/27 08:28:08;;;;;;;1.00;0.90;;;;;;;24.47;34.26;100486.92;1393035;93;21418;-80
2022/05/27 08:30:37;;;;;;;9.68;1.17;;;;;;;24.48;34.38;100484.49;1398807;93;21388;-80
2022/05/27 08:33:04;;;;;;;6.78;2.15;;;;;;;24.51;34.27;100482.66;1379839;93;21573;-80
2022/05/27 08:38:29;;;;;;;7.80;1.47;;;;;;;24.78;33.76;100483.50;1398531;93;21484;-82
2022/05/27 08:41:11;;;;;;;;;;;;;;;24.83;33.84;100483.58;1398337;93;22274;-81
2022/05/27 08:43:58;;;;;;;5.67;1.40;;;;;;;24.90;33.79;100482.39;1374673;95;20937;-81
2022/05/27 08:46:39;;;;;;;21.90;3.50;;;;;;;25.05;33.16;100476.44;1372900;94;21674;-81
2022/05/27 08:49:14;;;;;;;13.38;2.55;;;;;;;24.99;31.87;100486.89;1388397;93;21469;-80
2022/05/27 08:51:54;;;;;;;36.60;2.22;;;;;;;24.88;31.98;100474.22;1400114;94;22377;-81
2022/05/27 08:54:25;;;;;;;22.03;2.70;;;;;;;24.81;31.75;100472.20;1399293;94;22274;-81
2022/05/27 09:00:00;;;;;;;24.32;2.00;;;;;;;24.83;32.91;100463.28;1397172;93;21589;-82
2022/05/27 09:02:40;;;;;;;14.53;1.92;;;;;;;24.93;32.39;100449.42;1402260;94;21512;-81
2022/05/27 09:05:30;;;;;;;16.07;1.67;;;;;;;25.11;32.76;100471.41;1391915;93;22362;-81
2022/05/27 09:08:12;;;;;;;;;;;;;;;25.27;32.13;100476.61;1397503;93;21438;-81
2022/05/27 09:11:16;;;;;;;56.02;3.62;;;;;;;25.27;31.77;100464.42;1379544;95;20327;-82
2022/05/27 09:14:13;;;;;;;45.48;3.52;;;;;;;25.11;31.25;100461.92;1402341;93;21436;-81
2022/05/27 09:17:05;;;;;;;9.38;1.40;;;;;;;25.06;31.46;100455.09;1380026;94;21356;-82
2022/05/27 09:19:54;;;;;;;8.40;1.35;;;;;;;25.03;32.45;100443.39;1387538;94;21526;-81
2022/05/27 09:22:40;;;;;;;14.58;1.70;;;;;;;25.11;32.08;100437.55;1391790;93;21530;-81
2022/05/27 09:25:38;;;;;;;19.27;2.10;;;;;;;25.29;32.38;100439.79;1389905;92;21482;-81
2022/05/27 09:28:27;;;;;;;19.48;2.25;;;;;;;25.32;32.49;100431.17;1390710;94;21358;-82
2022/05/27 09:30:57;;;;;;;12.15;1.52;;;;;;;25.31;31.81;100433.06;1391442;92;22473;-81
2022/05/27 09:33:26;;;;;;;17.37;1.90;;;;;;;25.35;32.37;100438.84;1392169;92;21409;-81
2022/05/27 09:36:04;;;;;;;16.95;1.90;;;;;;;25.45;31.63;100430.86;1385772;92;21431;-81
2022/05/27 09:38:35;;;;;;;31.55;2.10;;;;;;;25.44;32.46;100431.94;1390736;94;21445;-81
2022/05/27 09:41:24;;;;;;;8.45;1.40;;;;;;;25.74;32.26;100425.35;1394145;92;22360;-81
2022/05/27 09:44:20;;;;;;;11.95;1.50;;;;;;;25.89;32.14;100418.82;1393351;92;21417;-80
2022/05/27 09:46:46;;;;;;;15.80;1.45;;;;;;;26.08;32.13;100413.95;1389331;94;22406;-80
2022/05/27 09:49:12;;;;;;;10.05;1.25;;;;;;;26.13;31.51;100410.50;1395633;94;21328;-82
2022/05/27 09:51:40;;;;;;;22.05;2.00;;;;;;;26.23;31.18;100407.90;1389875;92;21454;-81
2022/05/27 09:54:36;;;;;;;8.68;1.20;;;;;;;26.31;30.57;100411.53;1399060;92;21394;-81
2022/05/27 09:57:14;;;;;;;8.10;1.00;;;;;;;26.30;31.15;100396.34;1393261;92;21409;-82
2022/05/27 09:59:54;;;;;;;9.50;1.02;;;;;;;26.44;31.62;100394.89;1387650;92;21409;-81
2022/05/27 10:02:35;;;;;;;10.18;1.37;;;;;;;26.44;31.20;100402.18;1391730;92;21901;-81
2022/05/27 10:05:15;;;;;;;7.30;1.50;;;;;;;26.48;30.56;100389.22;1382056;94;21639;-81
2022/05/27 10:07:57;;;;;;;8.55;1.30;;;;;;;26.54;30.79;100399.09;1390421;92;21358;-81
2022/05/27 10:10:36;;;;;;;10.72;1.25;;;;;;;26.52;30.73;100397.16;1391189;94;22386;-81
2022/05/27 10:13:30;;;;;;;18.60;2.58;;;;;;;26.62;31.16;100384.25;1394109;92;21328;-80
2022/05/27 10:15:54;;;;;;;85.57;4.53;;;;;;;26.74;30.79;100371.89;1398416;94;22519;-82
2022/05/27 10:18:26;;;;;;;13.50;1.35;;;;;;;26.75;30.50;100383.83;1387328;92;21579;-81
2022/05/27 10:21:01;;;;;;;69.58;4.30;;;;;;;26.85;30.72;100387.21;1392177;94;21394;-81
2022/05/27 10:23:34;;;;;;;7.67;1.17;;;;;;;26.92;30.61;100376.95;1392221;92;22776;-81
2022/05/27 10:26:30;;;;;;;7.62;1.82;;;;;;;26.99;30.25;100370.78;1405579;92;21488;-81
2022/05/27 10:29:13;;;;;;;17.07;1.50;;;;;;;26.96;30.14;100371.84;1407828;92;22596;-81
2022/05/27 10:31:54;;;;;;;12.30;1.75;;;;;;;26.82;30.52;100368.72;1405064;92;21715;-81
2022/05/27 10:34:49;;;;;;;23.55;1.72;;;;;;;26.75;30.58;100351.25;1415186;92;21554;-81
2022/05/27 10:37:32;;;;;;;5.78;1.17;;;;;;;26.87;30.91;100361.95;1433142;91;21561;-82
2022/05/27 10:40:19;;;;;;;11.03;1.45;;;;;;;26.93;30.52;100346.02;1435423;91;21500;-84
2022/05/27 10:43:15;;;;;;;8.78;1.45;;;;;;;26.94;30.38;100338.14;1431442;91;21472;-83
2022/05/27 10:45:47;;;;;;;12.18;1.40;;;;;;;26.87;30.65;100338.87;1438248;91;21294;-82
2022/05/27 10:48:21;;;;;;;9.73;1.30;;;;;;;26.90;30.56;100336.19;1433501;91;21390;-82
2022/05/27 10:51:20;;;;;;;2.92;1.07;;;;;;;26.99;31.20;100333.30;1425979;91;22390;-82
2022/05/27 10:54:07;;;;;;;3.80;0.90;;;;;;;27.24;30.91;100317.75;1427047;91;22256;-81
2022/05/27 11:03:22;;;;;;;9.33;1.00;;;;;;;27.25;31.11;100304.47;1390093;93;22465;-81
2022/05/27 11:06:12;;;;;;;8.18;1.77;;;;;;;27.36;30.99;100300.75;1400373;93;21458;-82
2022/05/27 11:09:00;;;;;;;;;;;;;;;27.50;30.09;100306.52;1406116;93;22329;-81
2022/05/27 11:12:01;;;;;;;9.60;1.60;;;;;;;27.50;29.69;100286.67;1396936;93;20313;-80
2022/05/27 11:18:11;;;;;;;4.40;1.80;;;;;;;27.33;30.82;100289.56;1401947;93;21541;-81
2022/05/27 11:20:55;;;;;;;3.20;1.05;;;;;;;27.51;29.90;100296.48;1400518;93;21457;-81
2022/05/27 11:23:59;;;;;;;20.17;1.90;;;;;;;27.52;29.85;100288.05;1405916;93;21554;-82
2022/05/27 11:26:46;;;;;;;14.35;1.82;;;;;;;27.48;29.63;100279.31;1378743;93;21501;-83
2022/05/27 11:29:37;;;;;;;18.60;1.67;;;;;;;27.46;30.28;100280.95;1403748;93;22353;-81
2022/05/27 11:32:30;;;;;;;12.73;1.80;;;;;;;27.44;29.65;100264.09;1400308;93;22544;-82
2022/05/27 11:35:47;;;;;;;6.97;1.40;;;;;;;27.40;29.21;100268.42;1398765;93;21502;-83
2022/05/27 11:38:34;;;;;;;5.33;1.20;;;;;;;27.34;29.87;100266.77;1388391;93;22198;-83
2022/05/27 11:41:27;;;;;;;3.27;0.93;;;;;;;27.51;30.69;100242.12;1398384;93;21428;-84
2022/05/27 11:44:23;;;;;;;6.78;0.90;;;;;;;27.56;29.31;100244.84;1400003;93;21295;-82
2022/05/27 11:47:40;;;;;;;15.63;2.12;;;;;;;27.67;29.94;100245.17;1418876;92;22987;-81
2022/05/27 11:50:30;;;;;;;11.50;1.90;;;;;;;27.69;30.04;100236.22;1419173;92;21598;-81
2022/05/27 11:53:17;;;;;;;;;;;;;;;27.94;30.44;100236.89;1416404;92;21383;-82
2022/05/27 11:55:57;;;;;;;10.55;1.67;;;;;;;27.98;29.98;100222.20;1405384;92;20245;-81
2022/05/27 11:58:28;;;;;;;9.20;2.00;;;;;;;27.98;29.83;100230.37;1398256;91;21406;-81
2022/05/27 12:01:09;;;;;;;17.00;2.10;;;;;;;27.97;29.74;100217.86;1380610;93;21510;-82
2022/05/27 12:03:56;;;;;;;9.18;1.60;;;;;;;27.94;30.06;100223.81;1393302;93;21509;-82
2022/05/27 12:06:34;;;;;;;10.98;1.77;;;;;;;27.97;29.60;100212.42;1395602;93;22172;-81
2022/05/27 12:09:15;;;;;;;19.27;1.80;;;;;;;27.95;29.99;100205.06;1400798;93;21597;-81
2022/05/27 12:11:50;;;;;;;12.23;1.50;;;;;;;27.94;29.93;100203.41;1395167;93;22521;-81
2022/05/27 12:14:40;;;;;;;13.68;1.20;;;;;;;27.92;29.75;100212.41;1392901;93;22382;-81
2022/05/27 12:17:18;;;;;;;4.92;1.30;;;;;;;27.96;29.34;100201.25;1371868;93;22394;-80
2022/05/27 12:19:50;;;;;;;18.17;2.05;;;;;;;27.98;29.52;100203.17;1385742;93;23910;-81